Time;durP1;ratioP1;P1;durP2;ratioP2;P2;SDS_P1;SDS_P2;PMS_P1;PMS_P2;Temp;Humidity;BMP_temperature;BMP_pressure;BME280_temperature;BME280_humidity;BME280_pressure;Samples;Min_cycle;Max_cycle;Signal;HPM_P1;HPM_P2
2023/04/27 00:02:19;;;;;;;4.45;1.80;;;20.50;99.90;;;;;;5047647;28;20096;-64
2023/04/27 00:04:46;;;;;;;6.85;1.10;;;20.60;99.90;;;;;;5046591;28;20098;-66
2023/04/27 00:07:13;;;;;;;3.88;1.30;;;20.70;99.90;;;;;;5043912;28;20058;-65
2023/04/27 00:09:41;;;;;;;5.75;0.98;;;20.80;99.90;;;;;;5027856;28;20561;-66
2023/04/27 00:12:08;;;;;;;5.22;0.90;;;20.90;99.90;;;;;;5037405;28;20082;-65
2023/04/27 00:14:36;;;;;;;3.63;0.90;;;21.00;99.90;;;;;;5020301;28;20534;-66
2023/04/27 00:17:03;;;;;;;5.28;1.52;;;21.20;99.90;;;;;;5044313;28;20032;-66
2023/04/27 00:19:31;;;;;;;5.05;1.10;;;21.20;99.90;;;;;;5043174;28;20434;-66
2023/04/27 00:21:59;;;;;;;7.32;1.05;;;21.40;99.90;;;;;;5035053;28;20490;-66
2023/04/27 00:24:26;;;;;;;5.22;1.27;;;21.40;99.90;;;;;;5041132;28;20025;-66
2023/04/27 00:26:53;;;;;;;8.02;1.17;;;21.50;99.90;;;;;;5026856;28;20029;-64
2023/04/27 00:29:21;;;;;;;3.08;0.77;;;21.70;99.90;;;;;;5039284;28;20068;-66
2023/04/27 00:31:48;;;;;;;3.13;0.70;;;21.80;99.90;;;;;;5041567;28;20010;-66
2023/04/27 00:34:16;;;;;;;4.00;1.20;;;22.00;99.90;;;;;;5041394;28;20054;-66
2023/04/27 00:36:43;;;;;;;5.35;0.80;;;22.20;99.90;;;;;;5037215;28;20216;-66
2023/04/27 00:39:11;;;;;;;5.93;1.05;;;22.30;99.90;;;;;;5039523;28;20136;-66
2023/04/27 00:41:39;;;;;;;6.50;0.82;;;22.50;99.90;;;;;;5039167;28;20457;-66
2023/04/27 00:44:06;;;;;;;5.70;1.27;;;22.50;99.90;;;;;;5026148;28;20036;-66
2023/04/27 00:46:35;;;;;;;4.20;1.08;;;22.40;99.90;;;;;;5033210;28;20045;-66
2023/04/27 00:49:02;;;;;;;4.13;1.10;;;22.60;99.90;;;;;;5017467;28;20027;-65
2023/04/27 00:51:30;;;;;;;4.05;0.73;;;22.70;99.90;;;;;;5044282;28;20115;-66
2023/04/27 00:53:59;;;;;;;4.97;1.27;;;22.90;99.90;;;;;;5035593;28;20080;-68
2023/04/27 00:56:27;;;;;;;4.00;0.88;;;23.00;99.90;;;;;;5036764;28;20021;-66
2023/04/27 00:58:54;;;;;;;3.08;0.90;;;23.10;99.90;;;;;;5041743;28;20489;-66
2023/04/27 01:01:22;;;;;;;6.40;1.15;;;23.20;99.90;;;;;;5043765;28;20036;-66
2023/04/27 01:03:50;;;;;;;4.28;0.80;;;23.20;99.90;;;;;;5028200;28;20028;-66
2023/04/27 01:06:17;;;;;;;7.60;1.20;;;23.30;99.90;;;;;;5027480;28;20029;-65
2023/04/27 01:08:45;;;;;;;5.22;0.88;;;23.40;99.90;;;;;;5035310;28;20024;-65
2023/04/27 01:11:13;;;;;;;5.72;1.15;;;23.50;99.90;;;;;;5044479;28;20031;-66
2023/04/27 01:13:40;;;;;;;3.92;0.73;;;23.60;99.90;;;;;;5034707;28;20548;-66
2023/04/27 01:16:08;;;;;;;5.05;0.90;;;23.70;99.90;;;;;;5042391;28;20029;-67
2023/04/27 01:18:36;;;;;;;4.70;0.80;;;23.80;99.90;;;;;;5026555;28;20060;-65
2023/04/27 01:21:04;;;;;;;3.53;0.70;;;23.90;99.90;;;;;;5044762;28;20108;-67
2023/04/27 01:23:31;;;;;;;2.88;0.70;;;23.90;99.90;;;;;;5016806;28;20048;-67
2023/04/27 01:25:59;;;;;;;4.10;0.98;;;23.90;99.90;;;;;;5034696;28;20029;-66
2023/04/27 01:28:26;;;;;;;5.03;0.85;;;23.90;99.90;;;;;;5042044;28;20032;-66
2023/04/27 01:30:53;;;;;;;5.30;0.77;;;24.00;99.90;;;;;;5031224;28;20246;-65
2023/04/27 01:33:21;;;;;;;4.03;1.00;;;24.10;99.90;;;;;;5033066;28;20038;-65
2023/04/27 01:35:48;;;;;;;3.35;1.08;;;24.20;99.90;;;;;;5040761;28;20025;-66
2023/04/27 01:38:16;;;;;;;4.63;0.70;;;24.20;99.90;;;;;;5026541;28;20098;-67
2023/04/27 01:40:44;;;;;;;3.00;0.68;;;24.30;99.90;;;;;;5040385;28;20092;-67
2023/04/27 01:43:11;;;;;;;0.95;0.40;;;24.10;99.90;;;;;;5036990;28;20140;-68
2023/04/27 01:45:38;;;;;;;5.38;0.68;;;24.10;99.90;;;;;;5048690;28;20099;-68
2023/04/27 01:48:06;;;;;;;5.00;0.90;;;24.10;99.90;;;;;;5026313;28;20037;-67
2023/04/27 01:50:33;;;;;;;4.03;0.95;;;24.20;99.90;;;;;;5047936;28;20029;-66
2023/04/27 01:53:02;;;;;;;12.70;1.63;;;24.20;99.90;;;;;;5041954;28;20041;-68
2023/04/27 01:55:30;;;;;;;3.13;0.77;;;24.30;99.90;;;;;;5044161;28;20032;-66
2023/04/27 01:57:57;;;;;;;1.52;0.52;;;24.50;99.90;;;;;;5045559;28;20030;-65
2023/04/27 02:00:24;;;;;;;1.13;0.40;;;24.60;99.90;;;;;;5040523;28;20025;-66
2023/04/27 02:02:56;;;;;;;2.40;0.60;;;24.70;99.90;;;;;;5018182;28;20026;-66
2023/04/27 02:05:24;;;;;;;2.15;0.80;;;24.80;99.90;;;;;;5044571;28;20513;-67
2023/04/27 02:07:51;;;;;;;3.42;0.88;;;24.90;99.40;;;;;;5036342;28;20108;-67
2023/04/27 02:10:21;;;;;;;4.00;0.80;;;25.00;96.40;;;;;;5042733;28;20025;-68
2023/04/27 02:12:48;;;;;;;4.90;0.70;;;25.00;96.10;;;;;;5045934;28;20021;-67
2023/04/27 02:15:16;;;;;;;3.95;1.00;;;25.00;96.00;;;;;;5042811;28;20043;-67
2023/04/27 02:17:44;;;;;;;3.53;0.75;;;25.00;96.90;;;;;;5035178;28;20474;-66
2023/04/27 02:20:13;;;;;;;4.20;0.88;;;25.10;95.80;;;;;;5036038;28;20406;-67
2023/04/27 02:22:44;;;;;;;3.45;0.82;;;25.10;95.20;;;;;;5042747;28;20021;-67
2023/04/27 02:25:18;;;;;;;3.30;0.45;;;25.00;96.60;;;;;;5025937;28;20107;-66
2023/04/27 02:27:45;;;;;;;6.18;1.00;;;25.10;95.70;;;;;;5045362;28;20018;-67
2023/04/27 02:30:14;;;;;;;4.28;0.68;;;25.10;95.10;;;;;;5030915;28;20029;-69
2023/04/27 02:32:42;;;;;;;4.70;1.10;;;25.00;95.10;;;;;;5025875;28;20025;-66
2023/04/27 02:35:10;;;;;;;3.22;1.10;;;24.90;96.60;;;;;;5026610;28;20255;-68
2023/04/27 02:37:38;;;;;;;4.00;1.38;;;24.80;94.00;;;;;;5023657;28;20025;-68
2023/04/27 02:40:07;;;;;;;4.65;1.45;;;24.80;92.70;;;;;;5028369;28;20039;-67
2023/04/27 02:42:37;;;;;;;4.22;0.88;;;24.70;96.70;;;;;;5040134;28;20031;-68
2023/04/27 02:45:06;;;;;;;4.88;0.98;;;24.70;95.30;;;;;;5020524;28;20548;-67
2023/04/27 02:47:33;;;;;;;3.20;1.08;;;24.70;94.50;;;;;;5039110;28;20037;-68
2023/04/27 02:50:01;;;;;;;6.97;0.82;;;24.70;93.40;;;;;;5040756;28;20040;-67
2023/04/27 02:52:29;;;;;;;2.10;0.70;;;24.50;95.00;;;;;;5042955;28;20025;-68
2023/04/27 02:54:56;;;;;;;2.53;0.63;;;24.70;92.90;;;;;;5042422;28;20037;-68
2023/04/27 02:57:24;;;;;;;3.53;0.88;;;24.80;91.60;;;;;;5031302;28;20027;-67
2023/04/27 02:59:51;;;;;;;4.32;0.68;;;24.90;91.10;;;;;;5015923;28;20057;-66
2023/04/27 03:02:19;;;;;;;5.10;0.77;;;24.90;90.10;;;;;;5021766;28;20025;-67
2023/04/27 03:04:47;;;;;;;5.72;1.42;;;24.90;89.60;;;;;;5016769;28;20478;-69
2023/04/27 03:07:14;;;;;;;2.05;0.50;;;24.90;87.90;;;;;;5045120;28;20021;-68
2023/04/27 03:09:42;;;;;;;2.42;0.70;;;24.90;87.90;;;;;;5033801;28;20032;-67
2023/04/27 03:12:09;;;;;;;5.80;1.05;;;24.90;86.40;;;;;;5046268;28;20028;-67
2023/04/27 03:14:37;;;;;;;4.38;0.70;;;24.70;85.30;;;;;;5029845;28;20387;-67
2023/04/27 03:17:04;;;;;;;2.35;0.40;;;24.50;89.90;;;;;;5048286;28;20025;-67
2023/04/27 03:19:32;;;;;;;1.88;0.63;;;24.50;88.10;;;;;;5041700;28;21586;-67
2023/04/27 03:21:59;;;;;;;2.33;0.52;;;24.50;90.80;;;;;;5033966;28;20025;-67
2023/04/27 03:24:27;;;;;;;3.72;0.50;;;24.70;90.50;;;;;;5039514;28;20084;-66
2023/04/27 03:26:54;;;;;;;3.42;0.50;;;24.90;89.90;;;;;;5036299;28;20057;-67
2023/04/27 03:29:22;;;;;;;3.58;0.63;;;25.00;87.20;;;;;;5050297;28;20029;-66
2023/04/27 03:31:49;;;;;;;2.33;0.60;;;25.20;88.20;;;;;;5037681;28;20028;-70
2023/04/27 03:34:17;;;;;;;2.05;0.55;;;25.30;87.80;;;;;;5041608;28;20021;-66
2023/04/27 03:36:44;;;;;;;7.78;1.60;;;25.40;86.00;;;;;;5048657;28;20043;-66
2023/04/27 03:39:12;;;;;;;4.53;0.60;;;25.40;82.40;;;;;;5036387;28;20080;-65
2023/04/27 03:41:39;;;;;;;3.20;0.80;;;25.40;84.80;;;;;;5043445;28;20548;-66
2023/04/27 03:44:07;;;;;;;4.90;0.75;;;25.40;84.10;;;;;;5045937;28;20027;-65
2023/04/27 03:46:34;;;;;;;2.03;0.50;;;25.20;80.30;;;;;;5050590;28;20131;-65
2023/04/27 03:49:02;;;;;;;4.97;0.60;;;25.10;85.30;;;;;;5040386;28;20479;-65
2023/04/27 03:51:33;;;;;;;3.85;0.50;;;25.20;82.10;;;;;;5047791;28;20022;-67
2023/04/27 03:54:01;;;;;;;2.60;0.80;;;25.20;82.80;;;;;;5037291;28;20505;-65
2023/04/27 03:56:28;;;;;;;2.25;0.43;;;25.30;82.20;;;;;;5044028;28;20433;-65
2023/04/27 03:58:56;;;;;;;6.07;1.00;;;25.30;81.90;;;;;;5051228;28;20043;-66
2023/04/27 04:01:23;;;;;;;3.53;0.80;;;25.30;82.00;;;;;;5045785;28;20075;-66
2023/04/27 04:03:51;;;;;;;2.92;0.80;;;25.30;80.40;;;;;;5045691;28;20578;-66
2023/04/27 04:06:18;;;;;;;3.40;0.70;;;25.20;82.50;;;;;;5028009;28;20393;-66
2023/04/27 04:08:46;;;;;;;4.07;0.85;;;25.20;81.10;;;;;;5042476;28;20056;-66
2023/04/27 04:11:13;;;;;;;2.88;0.85;;;25.20;78.30;;;;;;5042646;28;20114;-66
2023/04/27 04:13:41;;;;;;;2.75;0.60;;;25.20;77.20;;;;;;5043697;28;20025;-62
2023/04/27 04:16:09;;;;;;;2.63;0.60;;;25.10;76.90;;;;;;5047016;28;20032;-62
2023/04/27 04:18:37;;;;;;;1.20;0.45;;;25.10;79.90;;;;;;5037452;28;20490;-62
2023/04/27 04:21:04;;;;;;;3.38;0.40;;;25.10;80.00;;;;;;5047415;28;20031;-60
2023/04/27 04:23:31;;;;;;;0.40;0.28;;;25.00;77.10;;;;;;5017249;28;20040;-62
2023/04/27 04:26:00;;;;;;;1.15;0.35;;;25.00;76.70;;;;;;5040663;28;20026;-63
2023/04/27 04:28:28;;;;;;;3.72;0.57;;;25.00;77.50;;;;;;5042677;28;20043;-61
2023/04/27 04:31:01;;;;;;;2.75;0.63;;;25.00;76.90;;;;;;5046594;28;20394;-62
2023/04/27 04:33:30;;;;;;;2.30;0.65;;;25.00;75.70;;;;;;5040264;28;20047;-61
2023/04/27 04:35:57;;;;;;;1.60;0.50;;;25.00;77.30;;;;;;5035643;28;20032;-61
2023/04/27 04:38:25;;;;;;;4.22;0.80;;;24.90;78.50;;;;;;5016782;28;20534;-61
2023/04/27 04:40:52;;;;;;;2.88;0.60;;;24.90;76.70;;;;;;5034824;28;20494;-61
2023/04/27 04:43:20;;;;;;;2.40;0.70;;;24.80;76.50;;;;;;5043596;28;20041;-63
2023/04/27 04:45:47;;;;;;;3.35;0.90;;;24.80;75.70;;;;;;5038370;28;20025;-62
2023/04/27 04:48:15;;;;;;;1.80;0.40;;;24.80;77.90;;;;;;5046795;28;20035;-62
2023/04/27 04:50:43;;;;;;;1.50;0.40;;;24.80;78.50;;;;;;5044511;28;20574;-62
2023/04/27 04:53:13;;;;;;;3.58;1.25;;;24.70;77.30;;;;;;5038358;28;20038;-62
2023/04/27 04:55:41;;;;;;;4.80;0.63;;;24.50;78.60;;;;;;5018302;28;20148;-64
2023/04/27 04:58:08;;;;;;;4.03;0.70;;;24.50;77.60;;;;;;5043507;28;20048;-62
2023/04/27 05:00:36;;;;;;;2.97;0.40;;;24.40;77.20;;;;;;5038531;28;20043;-62
2023/04/27 05:03:03;;;;;;;2.08;0.68;;;24.30;76.90;;;;;;5027609;28;20436;-62
2023/04/27 05:05:31;;;;;;;2.25;0.57;;;24.30;79.60;;;;;;5040958;28;20414;-62
2023/04/27 05:07:58;;;;;;;2.85;0.30;;;24.30;81.00;;;;;;5029389;28;20078;-62
2023/04/27 05:10:25;;;;;;;3.45;0.50;;;24.20;81.10;;;;;;5044580;28;20032;-61
2023/04/27 05:12:53;;;;;;;2.53;0.70;;;24.20;79.20;;;;;;5046798;28;20024;-62
2023/04/27 05:15:20;;;;;;;2.33;0.60;;;24.20;79.20;;;;;;5043971;28;20028;-62
2023/04/27 05:17:48;;;;;;;2.60;0.80;;;24.20;77.80;;;;;;5027429;28;20393;-62
2023/04/27 05:20:15;;;;;;;2.83;0.52;;;24.10;78.80;;;;;;5040782;28;20108;-61
2023/04/27 05:22:43;;;;;;;3.70;0.55;;;24.10;79.60;;;;;;5045887;28;20036;-61
2023/04/27 05:25:10;;;;;;;1.23;0.70;;;24.10;81.30;;;;;;5046475;28;20831;-62
2023/04/27 05:27:38;;;;;;;1.35;0.40;;;24.00;81.60;;;;;;5026602;28;20485;-62
2023/04/27 05:30:06;;;;;;;1.80;0.40;;;24.00;80.90;;;;;;5027306;28;20037;-61
2023/04/27 05:32:36;;;;;;;4.75;1.42;;;23.90;80.80;;;;;;5043604;28;20029;-62
2023/04/27 05:35:04;;;;;;;1.75;0.40;;;23.90;82.90;;;;;;5041316;28;20681;-62
2023/04/27 05:37:31;;;;;;;1.90;0.70;;;23.80;83.50;;;;;;5039237;28;20082;-61
2023/04/27 05:39:59;;;;;;;4.45;1.23;;;23.80;84.80;;;;;;5037085;28;20025;-62
2023/04/27 05:42:26;;;;;;;2.33;0.45;;;23.80;85.60;;;;;;5026919;28;20060;-62
2023/04/27 05:44:54;;;;;;;2.53;0.50;;;23.80;85.60;;;;;;5028461;28;20367;-61
2023/04/27 05:47:21;;;;;;;0.95;0.38;;;23.70;85.20;;;;;;5035064;28;20041;-62
2023/04/27 05:49:53;;;;;;;6.43;0.60;;;23.70;84.70;;;;;;5045767;28;20013;-61
2023/04/27 05:52:21;;;;;;;4.18;0.50;;;23.60;84.00;;;;;;5042330;28;20035;-63
2023/04/27 05:54:49;;;;;;;2.70;0.60;;;23.50;83.40;;;;;;5046248;28;20630;-62
2023/04/27 05:57:16;;;;;;;0.90;0.30;;;23.40;84.50;;;;;;5018829;28;20094;-61
2023/04/27 05:59:44;;;;;;;5.97;1.25;;;23.40;84.90;;;;;;5042310;28;20528;-62
2023/04/27 06:02:11;;;;;;;2.40;0.65;;;23.40;84.70;;;;;;5046045;28;20026;-64
2023/04/27 06:04:39;;;;;;;3.45;0.52;;;23.30;85.30;;;;;;5039579;28;20061;-62
2023/04/27 06:07:14;;;;;;;2.08;0.40;;;23.20;87.00;;;;;;5033633;28;20426;-63
2023/04/27 06:09:41;;;;;;;;;;;23.20;87.10;;;;;;5045797;28;20074;-63
2023/04/27 06:12:09;;;;;;;4.55;0.50;;;23.10;87.10;;;;;;5043584;28;19909;-63
2023/04/27 06:14:37;;;;;;;1.23;0.50;;;23.10;88.10;;;;;;5039419;28;20041;-63
2023/04/27 06:17:05;;;;;;;1.45;0.40;;;23.00;89.70;;;;;;5044839;28;20028;-63
2023/04/27 06:19:32;;;;;;;5.25;0.47;;;22.90;88.80;;;;;;5042904;28;20021;-63
2023/04/27 06:22:00;;;;;;;0.65;0.40;;;22.80;89.80;;;;;;5041106;28;20048;-63
2023/04/27 06:24:27;;;;;;;1.48;0.30;;;22.60;90.00;;;;;;5044984;28;20422;-63
2023/04/27 06:26:55;;;;;;;3.38;0.52;;;22.50;90.50;;;;;;5044239;28;20108;-63
2023/04/27 06:29:23;;;;;;;4.00;0.50;;;22.50;90.80;;;;;;5039353;28;20025;-63
2023/04/27 06:31:50;;;;;;;1.05;0.30;;;22.40;91.10;;;;;;5042340;28;20028;-63
2023/04/27 06:34:18;;;;;;;1.52;0.60;;;22.30;91.00;;;;;;5042139;28;20039;-63
2023/04/27 06:36:45;;;;;;;1.77;0.43;;;22.30;91.10;;;;;;5042539;28;20025;-63
2023/04/27 06:39:13;;;;;;;1.80;0.50;;;22.20;91.70;;;;;;5022390;28;20103;-62
2023/04/27 06:41:40;;;;;;;1.85;0.82;;;22.10;91.90;;;;;;5027455;28;20211;-63
2023/04/27 06:44:08;;;;;;;1.23;0.47;;;22.00;92.50;;;;;;5044074;28;20486;-63
2023/04/27 06:46:35;;;;;;;3.58;0.60;;;21.80;93.40;;;;;;5020522;28;22432;-63
2023/04/27 06:49:03;;;;;;;1.48;0.57;;;21.80;94.50;;;;;;5041999;28;20074;-62
2023/04/27 06:51:30;;;;;;;2.30;0.50;;;21.60;94.60;;;;;;5047749;28;20034;-63
2023/04/27 06:53:58;;;;;;;2.70;0.52;;;21.50;95.60;;;;;;5051763;28;20039;-63
2023/04/27 06:56:25;;;;;;;1.25;0.40;;;21.40;96.40;;;;;;5036064;28;20064;-63
2023/04/27 06:58:53;;;;;;;1.67;1.15;;;21.20;97.50;;;;;;5044634;28;20025;-63
2023/04/27 07:01:20;;;;;;;2.50;0.60;;;21.10;98.20;;;;;;5047719;28;20021;-64
2023/04/27 07:03:47;;;;;;;6.35;0.70;;;21.00;99.00;;;;;;5048175;28;20020;-63
2023/04/27 07:06:15;;;;;;;7.30;1.63;;;20.80;99.90;;;;;;5050957;28;20074;-63
2023/04/27 07:08:43;;;;;;;2.88;0.93;;;20.60;99.90;;;;;;5036109;28;20045;-62
2023/04/27 07:11:10;;;;;;;6.60;1.38;;;20.50;99.90;;;;;;5036600;28;20167;-62
2023/04/27 07:13:37;;;;;;;3.97;0.70;;;20.40;99.90;;;;;;5038979;28;20033;-62
2023/04/27 07:16:05;;;;;;;8.95;1.08;;;20.20;99.90;;;;;;5044402;28;20033;-63
2023/04/27 07:18:33;;;;;;;1.77;0.65;;;20.10;99.90;;;;;;5049957;28;20516;-62
2023/04/27 07:21:01;;;;;;;8.25;2.03;;;20.00;99.90;;;;;;5040144;28;20025;-62
2023/04/27 07:23:28;;;;;;;3.22;1.00;;;19.90;99.90;;;;;;5027587;28;20029;-62
2023/04/27 07:25:56;;;;;;;4.47;1.00;;;19.80;99.90;;;;;;5047579;28;20040;-62
2023/04/27 07:28:24;;;;;;;5.53;2.03;;;19.60;99.90;;;;;;5046591;28;20021;-61
2023/04/27 07:30:52;;;;;;;5.45;1.23;;;19.50;99.90;;;;;;5042183;28;20086;-62
2023/04/27 07:33:19;;;;;;;8.35;0.90;;;19.50;99.90;;;;;;5023894;28;20040;-61
2023/04/27 07:35:49;;;;;;;3.55;1.10;;;19.60;99.90;;;;;;5028785;28;20025;-61
2023/04/27 07:38:17;;;;;;;8.23;1.10;;;19.80;99.90;;;;;;5040257;28;20482;-61
2023/04/27 07:40:45;;;;;;;4.80;1.60;;;19.80;99.90;;;;;;5039856;28;20401;-61
2023/04/27 07:43:14;;;;;;;6.68;1.10;;;20.00;99.90;;;;;;5044589;28;20481;-62
2023/04/27 07:45:42;;;;;;;5.53;1.65;;;20.00;99.90;;;;;;5043287;28;20045;-62
2023/04/27 07:48:10;;;;;;;4.43;1.05;;;20.00;99.90;;;;;;5040809;28;20071;-58
2023/04/27 07:50:37;;;;;;;7.90;1.23;;;19.90;99.90;;;;;;5040718;28;20017;-60
2023/04/27 07:53:05;;;;;;;8.48;2.53;;;19.80;99.90;;;;;;5040343;28;20559;-61
2023/04/27 07:55:32;;;;;;;6.47;1.17;;;19.60;99.90;;;;;;5018097;28;20099;-60
2023/04/27 07:58:00;;;;;;;13.70;1.42;;;19.50;99.90;;;;;;5041170;28;20122;-62
2023/04/27 08:00:27;;;;;;;8.73;1.30;;;19.50;99.90;;;;;;5045820;28;20120;-61
2023/04/27 08:02:55;;;;;;;7.05;1.17;;;19.40;99.90;;;;;;5019480;28;20512;-61
2023/04/27 08:05:22;;;;;;;4.95;1.20;;;19.30;99.90;;;;;;5034163;28;20028;-63
2023/04/27 08:07:52;;;;;;;10.27;1.30;;;19.30;99.90;;;;;;5036720;28;20032;-63
2023/04/27 08:10:19;;;;;;;5.22;1.20;;;19.20;99.90;;;;;;5041712;28;20029;-63
2023/04/27 08:12:47;;;;;;;5.47;1.48;;;19.20;99.90;;;;;;5023879;28;20036;-62
2023/04/27 08:15:14;;;;;;;8.18;1.10;;;19.20;99.90;;;;;;5041183;28;20543;-61
2023/04/27 08:17:42;;;;;;;7.93;1.20;;;19.20;99.90;;;;;;5038220;28;20036;-60
2023/04/27 08:20:10;;;;;;;9.55;1.75;;;19.20;99.90;;;;;;5042902;28;20572;-61
2023/04/27 08:22:41;;;;;;;5.60;1.23;;;19.00;99.90;;;;;;5020520;28;20026;-60
2023/04/27 08:25:09;;;;;;;8.35;1.40;;;19.00;99.90;;;;;;5041483;28;20083;-61
2023/04/27 08:27:38;;;;;;;3.97;1.00;;;19.00;99.90;;;;;;5040665;28;20127;-60
2023/04/27 08:30:07;;;;;;;6.10;1.38;;;19.00;99.90;;;;;;5025207;28;20029;-61
2023/04/27 08:32:35;;;;;;;8.23;0.95;;;19.00;99.90;;;;;;5037450;28;20565;-61
2023/04/27 08:35:03;;;;;;;5.15;1.50;;;18.90;99.90;;;;;;5035914;28;20084;-61
2023/04/27 08:37:30;;;;;;;3.22;1.23;;;18.80;99.90;;;;;;5043752;28;20036;-60
2023/04/27 08:39:58;;;;;;;9.23;2.03;;;18.80;99.90;;;;;;5041058;28;20424;-61
2023/04/27 08:42:26;;;;;;;8.52;2.03;;;18.80;99.90;;;;;;5025243;28;20385;-60
2023/04/27 08:44:53;;;;;;;6.45;1.48;;;18.70;99.90;;;;;;5043361;28;20036;-61
2023/04/27 08:47:21;;;;;;;6.00;1.20;;;18.70;99.90;;;;;;5024276;28;20057;-61
2023/04/27 08:49:48;;;;;;;7.97;1.70;;;18.70;99.90;;;;;;5047037;28;20442;-61
2023/04/27 08:52:16;;;;;;;13.70;2.17;;;18.70;99.90;;;;;;5042930;28;20020;-61
2023/04/27 08:54:44;;;;;;;5.47;1.25;;;18.60;99.90;;;;;;5038141;28;20037;-61
2023/04/27 08:57:15;;;;;;;13.13;2.33;;;18.50;99.90;;;;;;5042090;28;20166;-60
2023/04/27 08:59:44;;;;;;;10.07;1.38;;;18.50;99.90;;;;;;5035023;28;20029;-60
2023/04/27 09:02:21;;;;;;;12.52;2.47;;;18.50;99.90;;;;;;5040306;28;20029;-61
2023/04/27 09:04:50;;;;;;;6.32;2.05;;;18.50;99.90;;;;;;5045491;28;20070;-61
2023/04/27 09:07:18;;;;;;;10.73;3.00;;;18.60;99.90;;;;;;5042979;28;20490;-60
2023/04/27 09:09:47;;;;;;;11.18;1.60;;;18.50;99.90;;;;;;5040381;28;20032;-60
2023/04/27 09:12:16;;;;;;;8.52;1.15;;;18.50;99.90;;;;;;5036095;28;20095;-61
2023/04/27 09:14:55;;;;;;;10.13;1.65;;;18.50;99.90;;;;;;5038958;28;20040;-60
2023/04/27 09:17:27;;;;;;;9.57;1.48;;;18.40;99.90;;;;;;5037115;28;20034;-61
2023/04/27 09:20:15;;;;;;;11.98;1.30;;;18.40;99.90;;;;;;5040625;28;20128;-61
2023/04/27 09:22:54;;;;;;;5.70;1.27;;;18.40;99.90;;;;;;5042979;28;20021;-61
2023/04/27 09:25:30;;;;;;;4.85;1.05;;;18.30;99.90;;;;;;5035150;28;20120;-60
2023/04/27 09:27:58;;;;;;;11.27;2.13;;;18.30;99.90;;;;;;5041709;28;20396;-60
2023/04/27 09:30:29;;;;;;;5.30;1.02;;;18.20;99.90;;;;;;5040812;28;20120;-61
2023/04/27 09:33:02;;;;;;;4.18;0.80;;;18.20;99.90;;;;;;5042293;28;20025;-60
2023/04/27 09:35:32;;;;;;;10.45;1.20;;;18.20;99.90;;;;;;5035403;28;20056;-60
2023/04/27 09:38:00;;;;;;;6.47;1.40;;;18.10;99.90;;;;;;5040765;28;20025;-60
2023/04/27 09:40:30;;;;;;;5.97;1.00;;;18.10;99.90;;;;;;5039559;28;20107;-60
2023/04/27 09:43:02;;;;;;;8.73;1.23;;;18.10;99.90;;;;;;5011772;28;20045;-60
2023/04/27 09:45:29;;;;;;;5.85;1.20;;;18.10;99.90;;;;;;5037200;28;20049;-60
2023/04/27 09:47:58;;;;;;;5.88;1.00;;;18.10;99.90;;;;;;5041972;28;20060;-60
2023/04/27 09:50:26;;;;;;;7.38;1.38;;;18.10;99.90;;;;;;5032319;28;20087;-60
2023/04/27 09:52:53;;;;;;;5.88;0.98;;;18.00;99.90;;;;;;5039840;28;20040;-60
2023/04/27 09:56:00;;;;;;;5.90;1.05;;;18.00;99.90;;;;;;5040287;28;20040;-60
2023/04/27 09:58:52;;;;;;;10.50;1.60;;;17.90;99.90;;;;;;5008073;28;20152;-60
2023/04/27 10:01:34;;;;;;;9.55;1.25;;;17.90;99.90;;;;;;5039864;28;20029;-64
2023/04/27 10:04:29;;;;;;;9.88;1.30;;;17.90;99.90;;;;;;5041674;28;20025;-60
2023/04/27 10:07:04;;;;;;;9.95;1.20;;;17.80;99.90;;;;;;5038342;28;20051;-60
2023/04/27 10:09:41;;;;;;;11.02;1.67;;;17.70;99.90;;;;;;5040252;28;20056;-60
2023/04/27 10:12:37;;;;;;;6.40;1.55;;;17.70;99.90;;;;;;5035748;28;20086;-61
2023/04/27 10:15:18;;;;;;;11.85;1.88;;;17.70;99.90;;;;;;5038064;28;20123;-61
2023/04/27 10:17:54;;;;;;;11.68;1.40;;;17.80;99.90;;;;;;5036742;28;20018;-61
2023/04/27 10:20:36;;;;;;;8.80;1.80;;;17.80;99.90;;;;;;5043485;28;20032;-61
2023/04/27 10:23:04;;;;;;;10.02;2.03;;;17.80;99.90;;;;;;5042583;28;20037;-60
2023/04/27 10:25:40;;;;;;;7.22;1.17;;;17.70;99.90;;;;;;5024733;28;20029;-60
2023/04/27 10:28:07;;;;;;;9.65;1.48;;;17.70;99.90;;;;;;5037681;28;20121;-60
2023/04/27 10:30:37;;;;;;;11.48;1.67;;;17.60;99.90;;;;;;5034030;28;20079;-60
2023/04/27 10:33:06;;;;;;;12.50;1.77;;;17.60;99.90;;;;;;5034766;28;20016;-60
2023/04/27 10:35:37;;;;;;;4.18;1.13;;;17.40;99.90;;;;;;5028659;28;20036;-60
2023/04/27 10:38:08;;;;;;;8.50;1.23;;;17.30;99.90;;;;;;5041713;28;20033;-60
2023/04/27 10:40:37;;;;;;;8.50;1.98;;;17.10;99.90;;;;;;5042019;28;20045;-60
2023/04/27 10:43:16;;;;;;;10.85;1.75;;;17.00;99.90;;;;;;5043501;28;20504;-60
2023/04/27 10:45:44;;;;;;;8.10;1.98;;;16.90;99.90;;;;;;5017707;28;20370;-60
2023/04/27 10:48:15;;;;;;;13.40;2.22;;;16.80;99.90;;;;;;5045750;28;20033;-61
2023/04/27 10:50:49;;;;;;;14.05;2.80;;;16.70;99.90;;;;;;5019281;28;20116;-60
2023/04/27 10:53:17;;;;;;;12.10;2.27;;;16.60;99.90;;;;;;5039607;28;20374;-60
2023/04/27 10:55:44;;;;;;;11.70;2.03;;;16.50;99.90;;;;;;5037993;28;20034;-60
2023/04/27 10:58:11;;;;;;;9.90;1.65;;;16.50;99.90;;;;;;5035744;28;20124;-60
2023/04/27 11:00:43;;;;;;;8.20;2.00;;;16.40;99.90;;;;;;5036408;28;20033;-60
2023/04/27 11:03:15;;;;;;;7.78;1.80;;;16.30;99.90;;;;;;5042875;28;20036;-60
2023/04/27 11:05:44;;;;;;;9.63;2.42;;;16.30;99.90;;;;;;5042659;28;20136;-61
2023/04/27 11:08:14;;;;;;;12.20;2.13;;;16.20;99.90;;;;;;5036451;28;20124;-61
2023/04/27 11:10:48;;;;;;;8.40;1.77;;;16.10;99.90;;;;;;5037850;28;20132;-60
2023/04/27 11:13:23;;;;;;;8.15;2.67;;;16.00;99.90;;;;;;5046907;28;20040;-60
2023/04/27 11:15:55;;;;;;;7.38;1.65;;;16.00;99.90;;;;;;5043929;28;20025;-60
2023/04/27 11:18:24;;;;;;;10.32;2.13;;;15.90;99.90;;;;;;5036640;28;20026;-60
2023/04/27 11:21:13;;;;;;;4.90;2.20;;;15.90;99.90;;;;;;5020921;28;20029;-60
2023/04/27 11:23:41;;;;;;;8.20;2.15;;;15.80;99.90;;;;;;5039263;28;20238;-59
2023/04/27 11:26:20;;;;;;;14.98;2.22;;;15.80;99.90;;;;;;5037720;28;20017;-60
2023/04/27 11:29:04;;;;;;;7.55;1.88;;;15.80;99.90;;;;;;5034731;28;20494;-61
2023/04/27 11:31:47;;;;;;;8.27;1.90;;;15.70;99.90;;;;;;5042709;28;20025;-60
2023/04/27 11:34:23;;;;;;;8.70;1.95;;;15.60;99.90;;;;;;5041349;28;20086;-60
2023/04/27 11:37:02;;;;;;;10.68;2.00;;;15.60;99.90;;;;;;5039882;28;20025;-59
2023/04/27 11:39:40;;;;;;;12.95;1.90;;;15.50;99.90;;;;;;5044161;28;20028;-60
2023/04/27 11:42:28;;;;;;;6.32;1.67;;;15.50;99.90;;;;;;5038465;28;22065;-60
2023/04/27 11:45:01;;;;;;;6.68;2.00;;;15.50;99.90;;;;;;5041357;28;20421;-60
2023/04/27 11:47:30;;;;;;;7.32;1.80;;;15.40;99.90;;;;;;5042404;28;20059;-60
2023/04/27 11:50:00;;;;;;;4.50;1.75;;;15.40;99.90;;;;;;5047726;28;20029;-61
2023/04/27 11:52:34;;;;;;;8.50;1.90;;;15.30;99.90;;;;;;5044092;28;20112;-59
2023/04/27 11:55:03;;;;;;;10.13;2.30;;;15.20;99.90;;;;;;5047091;28;20125;-60
2023/04/27 11:57:32;;;;;;;14.68;2.28;;;15.20;99.90;;;;;;5045160;28;20115;-60
2023/04/27 12:00:01;;;;;;;7.32;1.80;;;15.10;99.90;;;;;;5047463;28;20051;-60
2023/04/27 12:02:30;;;;;;;7.57;1.88;;;15.00;99.90;;;;;;5046407;28;20106;-60
2023/04/27 12:04:59;;;;;;;8.98;1.90;;;15.00;99.90;;;;;;5049969;28;20029;-59
2023/04/27 12:07:26;;;;;;;7.20;1.95;;;15.00;99.90;;;;;;5028406;28;20029;-60
2023/04/27 12:09:54;;;;;;;5.80;1.75;;;15.00;99.90;;;;;;5041707;28;20096;-60
2023/04/27 12:12:22;;;;;;;8.63;1.80;;;15.00;99.90;;;;;;5039862;28;20022;-60
2023/04/27 12:14:50;;;;;;;11.40;2.13;;;14.90;99.90;;;;;;5032723;28;20474;-60
2023/04/27 12:17:18;;;;;;;6.50;1.83;;;14.90;99.90;;;;;;5040424;28;20083;-59
2023/04/27 12:19:46;;;;;;;12.52;1.70;;;14.90;99.90;;;;;;5026267;28;20547;-59
2023/04/27 12:22:14;;;;;;;6.70;1.50;;;14.80;99.90;;;;;;5049507;28;20040;-59
2023/04/27 12:24:41;;;;;;;7.72;1.75;;;14.90;99.90;;;;;;5042214;28;20600;-59
2023/04/27 12:27:09;;;;;;;8.07;1.60;;;14.80;99.90;;;;;;5029828;28;20029;-59
2023/04/27 12:29:37;;;;;;;9.60;1.90;;;14.80;99.90;;;;;;5042207;28;20056;-58
2023/04/27 12:32:04;;;;;;;6.45;1.55;;;14.70;99.90;;;;;;5042285;28;20036;-59
2023/04/27 12:34:33;;;;;;;14.30;3.08;;;14.70;99.90;;;;;;5057697;28;20036;-58
2023/04/27 12:37:00;;;;;;;15.43;1.83;;;14.60;99.90;;;;;;5052802;28;20056;-60
2023/04/27 12:39:28;;;;;;;18.83;2.45;;;14.60;99.90;;;;;;5042450;28;20028;-59
2023/04/27 12:41:57;;;;;;;13.82;2.60;;;14.60;99.90;;;;;;5044398;28;20052;-59
2023/04/27 12:44:25;;;;;;;11.27;2.90;;;14.60;99.90;;;;;;5046663;28;20398;-60
2023/04/27 12:46:53;;;;;;;12.68;2.15;;;14.60;99.90;;;;;;5043150;28;20402;-59
2023/04/27 12:49:20;;;;;;;9.27;1.80;;;14.60;99.90;;;;;;5044115;28;20029;-61
2023/04/27 12:51:50;;;;;;;8.70;1.63;;;14.50;99.90;;;;;;5048782;28;20025;-59
2023/04/27 12:54:18;;;;;;;8.73;1.70;;;14.40;99.90;;;;;;5042158;28;20041;-59
2023/04/27 12:56:46;;;;;;;8.80;2.00;;;14.40;99.90;;;;;;5042134;28;20126;-59